createdAt,value
2023-04-30T06:17:26.371Z,1.00
2023-04-30T06:19:53.384Z,0.60
2023-04-30T06:22:20.584Z,0.80
2023-04-30T06:24:47.464Z,0.87
2023-04-30T06:27:14.302Z,0.57
2023-04-30T06:29:41.162Z,0.80
2023-04-30T06:32:08.602Z,0.70
2023-04-30T06:34:35.834Z,1.20
2023-04-30T06:37:02.817Z,0.70
2023-04-30T06:39:29.765Z,0.83
2023-04-30T06:41:56.596Z,0.70
2023-04-30T06:44:23.417Z,0.70
2023-04-30T06:46:50.232Z,0.90
2023-04-30T06:49:17.187Z,0.70
2023-04-30T06:51:44.044Z,1.03
2023-04-30T06:54:11.044Z,0.80
2023-04-30T06:56:37.845Z,0.90
2023-04-30T06:59:04.669Z,0.80
2023-04-30T07:01:31.542Z,0.70
2023-04-30T07:03:59.245Z,0.60
2023-04-30T07:06:26.240Z,0.80
2023-04-30T07:08:53.176Z,0.80
2023-04-30T07:11:20.057Z,0.70
2023-04-30T07:13:46.924Z,0.73
2023-04-30T07:16:14.678Z,0.90
2023-04-30T07:18:41.646Z,0.63
2023-04-30T07:21:08.882Z,1.00
2023-04-30T07:23:35.711Z,0.77
2023-04-30T07:26:02.561Z,0.90
2023-04-30T07:28:29.407Z,0.80
2023-04-30T07:30:56.259Z,0.80
2023-04-30T07:33:23.037Z,0.70
2023-04-30T07:35:49.984Z,0.70
2023-04-30T07:38:19.088Z,0.70
2023-04-30T07:40:45.874Z,0.53
2023-04-30T07:43:12.710Z,1.43
2023-04-30T07:45:39.534Z,0.80
2023-04-30T07:48:06.796Z,0.77
2023-04-30T07:50:34.418Z,0.80
2023-04-30T07:53:02.262Z,0.87
2023-04-30T07:55:29.255Z,0.70
2023-04-30T07:57:56.087Z,0.57
2023-04-30T08:00:23.219Z,1.10
2023-04-30T08:02:51.105Z,0.60
2023-04-30T08:05:18.127Z,0.90
2023-04-30T08:07:45.018Z,0.63
2023-04-30T08:10:12.237Z,0.67
2023-04-30T08:12:39.292Z,0.80
2023-04-30T08:15:07.580Z,0.60
2023-04-30T08:17:34.803Z,0.90
2023-04-30T08:20:03.025Z,0.73
2023-04-30T08:22:29.989Z,0.87
2023-04-30T08:24:56.954Z,0.80
2023-04-30T08:27:23.922Z,0.70
2023-04-30T08:29:50.741Z,0.77
2023-04-30T08:32:19.783Z,1.20
2023-04-30T08:34:46.805Z,0.90
2023-04-30T08:37:13.795Z,0.90
2023-04-30T08:39:40.717Z,1.00
2023-04-30T08:42:09.907Z,0.90
2023-04-30T08:44:43.979Z,0.80
2023-04-30T08:47:14.442Z,0.90
2023-04-30T08:49:42.037Z,1.00
2023-04-30T08:52:09.077Z,0.90
2023-04-30T08:54:37.316Z,1.03
2023-04-30T08:57:04.850Z,0.80
2023-04-30T08:59:31.724Z,1.20
2023-04-30T09:02:01.357Z,1.00
2023-04-30T09:04:28.666Z,0.80
2023-04-30T09:06:59.252Z,1.00
2023-04-30T09:09:30.819Z,0.70
2023-04-30T09:12:20.061Z,0.63
2023-04-30T09:15:01.677Z,0.80
2023-04-30T09:17:28.719Z,0.87
2023-04-30T09:20:07.029Z,0.63
2023-04-30T09:22:34.649Z,0.67
2023-04-30T09:25:01.610Z,0.97
2023-04-30T09:27:28.403Z,1.00
2023-04-30T09:29:55.470Z,0.90
2023-04-30T09:32:22.662Z,0.90
2023-04-30T09:34:49.751Z,1.00
2023-04-30T09:37:16.650Z,0.80
2023-04-30T09:39:54.989Z,1.00
2023-04-30T09:42:22.745Z,0.90
2023-04-30T09:44:49.650Z,0.87
2023-04-30T09:47:20.569Z,0.90
2023-04-30T09:49:52.724Z,0.70
2023-04-30T09:52:21.091Z,0.90
2023-04-30T09:54:48.086Z,0.90
2023-04-30T09:57:16.092Z,1.10
2023-04-30T09:59:47.056Z,0.63
2023-04-30T10:02:16.324Z,1.00
2023-04-30T10:04:44.863Z,0.70
2023-04-30T10:07:22.291Z,0.90
2023-04-30T10:09:59.607Z,0.73
2023-04-30T10:12:30.316Z,1.00
2023-04-30T10:15:15.882Z,0.97
2023-04-30T10:17:46.271Z,0.70
2023-04-30T10:20:13.261Z,1.03
2023-04-30T10:22:41.930Z,0.80
2023-04-30T10:25:14.031Z,0.90
2023-04-30T10:27:41.002Z,1.00
2023-04-30T10:30:10.754Z,0.80
2023-04-30T10:33:16.964Z,0.70
2023-04-30T10:35:44.882Z,0.80
2023-04-30T10:38:27.243Z,0.73
2023-04-30T10:40:58.316Z,0.87
2023-04-30T10:43:26.006Z,0.80
2023-04-30T10:45:53.029Z,0.90
2023-04-30T10:48:25.642Z,0.70
2023-04-30T10:50:53.715Z,0.80
2023-04-30T10:53:23.168Z,1.00
2023-04-30T10:56:09.822Z,0.93
2023-04-30T10:58:38.918Z,0.90
2023-04-30T11:01:11.095Z,0.70
2023-04-30T11:03:38.703Z,0.73
2023-04-30T11:06:15.587Z,0.90
2023-04-30T11:08:46.391Z,0.80
2023-04-30T11:11:18.719Z,0.80
2023-04-30T11:13:46.561Z,0.70
2023-04-30T11:16:14.040Z,0.70
2023-04-30T11:18:47.832Z,0.60
2023-04-30T11:21:14.614Z,0.73
2023-04-30T11:23:45.661Z,0.77
2023-04-30T11:26:12.653Z,0.70
2023-04-30T11:28:39.551Z,0.70
2023-04-30T11:31:06.578Z,0.83
2023-04-30T11:33:34.371Z,0.80
2023-04-30T11:36:02.019Z,0.87
2023-04-30T11:38:35.861Z,0.60
2023-04-30T11:41:03.723Z,0.70
2023-04-30T11:43:34.865Z,0.93
2023-04-30T11:46:11.581Z,0.77
2023-04-30T11:48:40.745Z,0.80
2023-04-30T11:51:22.078Z,1.13
2023-04-30T11:53:51.734Z,0.50
2023-04-30T11:56:27.842Z,0.70
2023-04-30T11:58:57.998Z,0.80
2023-04-30T12:01:27.778Z,0.70
2023-04-30T12:03:57.542Z,0.80
2023-04-30T12:06:26.641Z,1.00
2023-04-30T12:08:58.229Z,0.70
2023-04-30T12:11:29.803Z,0.60
2023-04-30T12:14:12.995Z,0.60
2023-04-30T12:16:51.322Z,0.80
2023-04-30T12:19:19.483Z,0.80
2023-04-30T12:21:47.744Z,0.63
2023-04-30T12:24:19.468Z,1.10
2023-04-30T12:26:46.795Z,0.77
2023-04-30T12:29:16.503Z,0.80
2023-04-30T12:31:44.039Z,0.70
2023-04-30T12:34:13.286Z,0.80
2023-04-30T12:36:44.564Z,1.10
2023-04-30T12:39:18.602Z,0.87
2023-04-30T12:41:49.861Z,0.60
2023-04-30T12:44:20.390Z,0.80
2023-04-30T12:46:53.620Z,0.83
2023-04-30T12:49:30.713Z,0.90
2023-04-30T12:52:12.649Z,0.70
2023-04-30T12:54:39.973Z,0.87
2023-04-30T12:57:07.699Z,0.73
2023-04-30T12:59:57.879Z,0.90
2023-04-30T13:02:27.282Z,0.80
2023-04-30T13:04:54.768Z,0.70
2023-04-30T13:07:21.787Z,0.77
2023-04-30T13:09:48.598Z,0.80
2023-04-30T13:12:15.559Z,0.83
2023-04-30T13:14:42.485Z,0.77
2023-04-30T13:17:11.108Z,0.70
2023-04-30T13:19:37.944Z,0.60
2023-04-30T13:22:04.975Z,0.90
2023-04-30T13:24:31.910Z,0.50
2023-04-30T13:26:59.516Z,0.63
2023-04-30T13:29:26.570Z,0.60
2023-04-30T13:31:53.602Z,0.80
2023-04-30T13:34:20.571Z,0.87
2023-04-30T13:36:47.695Z,1.07
2023-04-30T13:39:14.568Z,0.50
2023-04-30T13:41:41.356Z,0.83
2023-04-30T13:44:08.390Z,0.70
2023-04-30T13:46:35.256Z,0.70
2023-04-30T13:49:02.784Z,0.97
2023-04-30T13:51:29.661Z,0.57
2023-04-30T13:53:56.846Z,0.50
2023-04-30T13:56:24.394Z,0.63
2023-04-30T13:58:51.387Z,0.70
2023-04-30T14:01:18.295Z,0.80
2023-04-30T14:03:46.801Z,0.70
2023-04-30T14:06:13.747Z,1.00
2023-04-30T14:08:40.582Z,1.00
2023-04-30T14:11:07.607Z,0.77
2023-04-30T14:13:34.718Z,0.57
2023-04-30T14:16:02.217Z,0.70
2023-04-30T14:18:29.199Z,0.80
2023-04-30T14:20:56.252Z,0.80
2023-04-30T14:23:23.116Z,0.70
2023-04-30T14:25:50.001Z,0.70
2023-04-30T14:28:16.930Z,0.90
2023-04-30T14:30:43.804Z,0.90
2023-04-30T14:33:12.684Z,0.60
2023-04-30T14:35:39.945Z,0.77
2023-04-30T14:38:06.714Z,0.97
2023-04-30T14:40:33.517Z,1.40
2023-04-30T14:43:00.423Z,0.90
2023-04-30T14:45:28.450Z,0.70
2023-04-30T14:47:55.668Z,0.80
2023-04-30T14:50:22.785Z,0.60
2023-04-30T14:52:50.110Z,1.00
2023-04-30T14:55:17.280Z,0.67
2023-04-30T14:57:44.051Z,0.70
2023-04-30T15:00:12.315Z,0.70
2023-04-30T15:02:39.282Z,1.07
2023-04-30T15:05:07.742Z,0.80
2023-04-30T15:07:34.971Z,0.83
2023-04-30T15:10:01.812Z,0.70
2023-04-30T15:12:28.631Z,0.70
2023-04-30T15:14:55.480Z,0.80
2023-04-30T15:17:22.549Z,0.80
2023-04-30T15:19:49.359Z,0.70
2023-04-30T15:22:16.673Z,0.83
2023-04-30T15:24:43.533Z,0.80
2023-04-30T15:27:11.984Z,0.63
2023-04-30T15:29:40.580Z,1.00
2023-04-30T15:32:07.452Z,1.13
2023-04-30T15:34:34.262Z,0.80
2023-04-30T15:37:02.133Z,0.77
2023-04-30T15:39:29.149Z,0.90
2023-04-30T15:41:55.987Z,0.63
2023-04-30T15:44:22.982Z,0.60
2023-04-30T15:46:49.902Z,0.87
2023-04-30T15:49:17.000Z,1.00
2023-04-30T15:51:45.265Z,0.83
2023-04-30T15:54:13.664Z,0.77
2023-04-30T15:56:40.734Z,0.50
2023-04-30T15:59:07.890Z,0.93
2023-04-30T16:01:35.422Z,1.43
2023-04-30T16:04:02.535Z,0.60
2023-04-30T16:06:30.189Z,0.63
2023-04-30T16:08:57.018Z,0.93
2023-04-30T16:11:24.457Z,0.60
2023-04-30T16:13:54.655Z,0.70
2023-04-30T16:16:21.651Z,0.60
2023-04-30T16:18:48.793Z,0.87
2023-04-30T16:21:16.243Z,0.70
2023-04-30T16:23:43.440Z,0.70
2023-04-30T16:26:10.344Z,0.90
2023-04-30T16:28:37.165Z,0.60
2023-04-30T16:31:04.067Z,1.50
2023-04-30T16:33:30.990Z,1.00
2023-04-30T16:35:57.873Z,0.80
2023-04-30T16:38:24.951Z,1.07
2023-04-30T16:40:51.916Z,1.07
2023-04-30T16:43:18.845Z,0.80
2023-04-30T16:45:46.440Z,1.10
2023-04-30T16:48:13.422Z,0.80
2023-04-30T16:50:40.296Z,0.70
2023-04-30T16:53:09.234Z,0.93
2023-04-30T16:55:37.732Z,0.93
2023-04-30T16:58:04.506Z,0.83
2023-04-30T17:00:31.399Z,0.80
2023-04-30T17:02:58.280Z,0.90
2023-04-30T17:05:25.252Z,0.80
2023-04-30T17:07:52.088Z,0.90
2023-04-30T17:10:19.784Z,1.00
2023-04-30T17:12:46.637Z,1.03
2023-04-30T17:15:13.928Z,0.70
2023-04-30T17:17:41.006Z,0.70
2023-04-30T17:20:08.358Z,0.97
2023-04-30T17:22:35.626Z,1.10
2023-04-30T17:25:02.438Z,1.10
2023-04-30T17:27:29.244Z,1.03
2023-04-30T17:29:56.421Z,0.90
2023-04-30T17:32:23.540Z,1.17
2023-04-30T17:34:50.405Z,0.87
2023-04-30T17:37:17.893Z,1.00
2023-04-30T17:39:44.741Z,0.93
2023-04-30T17:42:13.224Z,1.03
2023-04-30T17:44:40.179Z,1.17
2023-04-30T17:47:07.281Z,1.13
2023-04-30T17:49:34.075Z,0.90
2023-04-30T17:52:01.462Z,1.30
2023-04-30T17:54:31.241Z,0.90
2023-04-30T17:56:59.263Z,1.20
2023-04-30T17:59:29.263Z,1.20
2023-04-30T18:01:56.530Z,1.00
2023-04-30T18:04:23.499Z,1.07
2023-04-30T18:06:50.536Z,1.20
2023-04-30T18:09:18.743Z,1.10
2023-04-30T18:11:45.964Z,1.17
2023-04-30T18:14:12.752Z,1.10
2023-04-30T18:16:39.760Z,1.37
2023-04-30T18:19:06.842Z,1.00
2023-04-30T18:21:33.837Z,1.40
2023-04-30T18:24:00.712Z,1.03
2023-04-30T18:26:27.969Z,1.30
2023-04-30T18:28:55.790Z,0.87
2023-04-30T18:31:22.821Z,1.10
2023-04-30T18:33:49.695Z,1.37
2023-04-30T18:36:16.602Z,1.23
2023-04-30T18:38:44.848Z,1.43
2023-04-30T18:41:11.692Z,1.30
2023-04-30T18:43:40.656Z,1.20
2023-04-30T18:46:07.639Z,1.20
2023-04-30T18:48:34.616Z,1.00
2023-04-30T18:51:04.468Z,1.30
2023-04-30T18:53:31.359Z,1.20
2023-04-30T18:55:58.364Z,1.40
2023-04-30T18:58:25.312Z,1.50
2023-04-30T19:00:52.596Z,1.40
2023-04-30T19:03:19.540Z,2.23
2023-04-30T19:05:46.454Z,1.60
2023-04-30T19:08:13.274Z,1.57
2023-04-30T19:10:40.052Z,2.00
2023-04-30T19:13:07.549Z,1.67
2023-04-30T19:15:35.679Z,1.70
2023-04-30T19:18:03.447Z,1.67
2023-04-30T19:20:30.440Z,1.57
2023-04-30T19:22:57.598Z,1.80
2023-04-30T19:25:25.104Z,1.90
2023-04-30T19:27:54.216Z,1.53
2023-04-30T19:30:21.678Z,2.33
2023-04-30T19:32:51.963Z,1.93
2023-04-30T19:35:24.433Z,1.70
2023-04-30T19:37:51.689Z,2.23
2023-04-30T19:40:18.967Z,1.83
2023-04-30T19:42:48.007Z,2.10
2023-04-30T19:45:15.388Z,1.73
2023-04-30T19:47:42.943Z,2.10
2023-04-30T19:50:10.493Z,2.30
2023-04-30T19:52:42.612Z,2.20
2023-04-30T19:55:09.989Z,2.30
2023-04-30T19:57:37.286Z,2.30
